Time;durP1;ratioP1;P1;durP2;ratioP2;P2;SDS_P1;SDS_P2;PMS_P1;PMS_P2;Temp;Humidity;BMP_temperature;BMP_pressure;BME280_temperature;BME280_humidity;BME280_pressure;Samples;Min_cycle;Max_cycle;Signal;HPM_P1;HPM_P2
2022/03/12 00:01:44;;;;;;;;;2.33;2.33;;;;;26.39;27.49;100738.06;5086671;27;45498;-73
2022/03/12 00:04:10;;;;;;;;;3.00;2.00;;;;;26.63;26.81;100744.16;5080428;27;45306;-73
2022/03/12 00:06:35;;;;;;;;;2.00;2.00;;;;;26.68;26.60;100743.00;5097309;27;45481;-74
2022/03/12 00:09:02;;;;;;;;;3.00;2.00;;;;;26.68;26.82;100751.16;5098723;27;45328;-74
2022/03/12 00:11:34;;;;;;;;;3.00;2.00;;;;;26.78;26.42;100739.84;5098435;27;45423;-73
2022/03/12 00:14:04;;;;;;;;;2.00;2.00;;;;;26.48;27.17;100737.63;5098539;27;45466;-73
2022/03/12 00:16:31;;;;;;;;;2.00;2.00;;;;;26.42;27.18;100754.25;5097896;27;46257;-73
2022/03/12 00:18:59;;;;;;;;;4.00;2.00;;;;;26.40;27.27;100770.63;5098431;27;45428;-73
2022/03/12 00:21:26;;;;;;;;;3.67;3.00;;;;;26.53;27.04;100774.53;5098293;27;45395;-73
2022/03/12 00:23:55;;;;;;;;;3.00;3.00;;;;;26.42;26.80;100768.72;5097160;27;45370;-73
2022/03/12 00:26:23;;;;;;;;;1.00;1.00;;;;;26.50;27.30;100771.97;5096811;27;48206;-73
2022/03/12 00:28:50;;;;;;;;;2.67;2.67;;;;;26.49;26.92;100783.78;5098275;27;45456;-73
2022/03/12 00:31:16;;;;;;;;;2.00;2.00;;;;;26.52;27.03;100788.22;5098409;27;45500;-73
2022/03/12 00:33:42;;;;;;;;;2.00;2.00;;;;;26.31;27.34;100787.38;5098050;27;45322;-73
2022/03/12 00:36:07;;;;;;;;;1.00;1.00;;;;;26.43;26.93;100780.50;5098162;27;46139;-73
2022/03/12 00:38:33;;;;;;;;;2.00;1.00;;;;;26.46;27.17;100786.66;5084224;27;45492;-73
2022/03/12 00:41:02;;;;;;;;;2.00;2.00;;;;;26.36;27.34;100775.31;5078033;28;45457;-73
2022/03/12 00:43:28;;;;;;;;;3.00;2.00;;;;;26.49;27.10;100791.94;5077421;28;45387;-73
2022/03/12 00:45:53;;;;;;;;;2.00;2.00;;;;;26.13;27.39;100759.19;5077487;28;46272;-73
2022/03/12 00:48:19;;;;;;;;;2.00;2.00;;;;;26.26;27.40;100770.38;5059221;28;45436;-73
2022/03/12 00:50:44;;;;;;;;;3.33;2.33;;;;;26.45;26.86;100786.75;5077018;28;45565;-73
2022/03/12 00:53:09;;;;;;;;;4.00;3.00;;;;;26.59;27.07;100797.84;5077816;28;45367;-73
2022/03/12 00:55:35;;;;;;;;;3.33;2.33;;;;;26.30;26.92;100786.50;5077292;28;46364;-73
2022/03/12 00:58:01;;;;;;;;;2.00;2.00;;;;;26.34;27.32;100807.16;5077295;28;45407;-73
2022/03/12 01:00:27;;;;;;;;;3.67;1.67;;;;;26.19;27.28;100802.44;5077426;28;45407;-73
2022/03/12 01:02:53;;;;;;;;;4.00;2.00;;;;;26.22;27.46;100818.59;5091841;27;45725;-73
2022/03/12 01:05:22;;;;;;;;;3.33;3.33;;;;;26.30;27.36;100813.72;5097776;27;46166;-73
2022/03/12 01:07:50;;;;;;;;;4.33;2.33;;;;;26.19;27.49;100802.44;5097723;27;45475;-73
2022/03/12 01:10:15;;;;;;;;;2.00;2.00;;;;;26.34;27.29;100823.50;5097916;27;45482;-73
2022/03/12 01:12:43;;;;;;;;;2.33;2.33;;;;;26.33;27.12;100812.69;5097579;27;45306;-73
2022/03/12 01:15:10;;;;;;;;;3.00;3.00;;;;;26.48;27.03;100828.31;5079051;27;48313;-73
2022/03/12 01:17:35;;;;;;;;;2.00;2.00;;;;;26.29;26.86;100814.66;5096958;27;45576;-73
2022/03/12 01:20:02;;;;;;;;;3.00;3.00;;;;;26.47;26.97;100834.69;5097620;27;45461;-72
2022/03/12 01:22:29;;;;;;;;;2.33;2.33;;;;;26.35;27.44;100841.56;5097595;27;45512;-73
2022/03/12 01:24:55;;;;;;;;;2.67;2.00;;;;;26.30;26.93;100832.75;5097465;27;45484;-73
2022/03/12 01:27:21;;;;;;;;;2.00;2.00;;;;;26.26;27.33;100838.38;5097355;27;45680;-73
2022/03/12 01:29:46;;;;;;;;;2.00;2.00;;;;;26.06;27.29;100828.41;5097563;27;45371;-73
2022/03/12 01:32:11;;;;;;;;;2.00;2.00;;;;;26.25;27.44;100823.03;5097307;27;45327;-73
2022/03/12 01:34:37;;;;;;;;;2.00;2.00;;;;;26.23;27.29;100836.69;5096990;27;46362;-73
2022/03/12 01:37:03;;;;;;;;;3.00;3.00;;;;;25.85;27.50;100810.22;5097569;27;45376;-72
2022/03/12 01:39:29;;;;;;;;;4.67;4.00;;;;;26.07;27.69;100824.72;5097368;27;45553;-72
2022/03/12 01:41:54;;;;;;;;;2.00;2.00;;;;;26.18;27.11;100827.84;5097147;27;45425;-72
2022/03/12 01:44:21;;;;;;;;;3.33;2.00;;;;;26.28;27.46;100837.34;5097394;27;45379;-72
2022/03/12 01:46:48;;;;;;;;;2.33;2.00;;;;;26.23;27.41;100842.13;5078397;27;45714;-72
2022/03/12 01:49:16;;;;;;;;;3.00;2.00;;;;;26.00;27.55;100835.84;5078966;27;45480;-73
2022/03/12 01:51:44;;;;;;;;;2.33;1.33;;;;;26.02;27.40;100850.28;5097020;27;45470;-74
2022/03/12 01:54:10;;;;;;;;;5.00;2.33;;;;;25.91;27.36;100838.97;5078531;27;47258;-74
2022/03/12 01:56:38;;;;;;;;;3.00;3.00;;;;;26.00;27.59;100838.53;5074129;28;45414;-74
2022/03/12 01:59:04;;;;;;;;;2.67;2.00;;;;;25.93;27.48;100844.34;5076752;28;45386;-74
2022/03/12 02:01:31;;;;;;;;;4.00;4.00;;;;;25.87;27.73;100850.94;5079181;27;45370;-73
2022/03/12 02:03:57;;;;;;;;;3.00;3.00;;;;;25.61;28.12;100843.88;5095735;27;45344;-74
2022/03/12 02:06:24;;;;;;;;;3.33;3.00;;;;;25.64;27.63;100831.06;5097303;27;45238;-74
2022/03/12 02:08:54;;;;;;;;;3.67;2.67;;;;;25.75;27.77;100863.22;5096958;27;45536;-74
2022/03/12 02:11:26;;;;;;;;;3.00;3.00;;;;;25.77;27.97;100857.72;5097125;27;45278;-73
2022/03/12 02:14:00;;;;;;;;;2.00;2.00;;;;;25.59;27.90;100881.13;5096579;27;46330;-74
2022/03/12 02:16:26;;;;;;;;;3.33;3.33;;;;;25.59;27.90;100862.97;5096439;27;45419;-74
2022/03/12 02:18:52;;;;;;;;;3.00;3.00;;;;;25.87;27.64;100867.22;5096807;27;45416;-74
2022/03/12 02:21:49;;;;;;;;;2.00;2.00;;;;;26.07;27.64;100879.13;5097150;27;45432;-74
2022/03/12 02:24:16;;;;;;;;;3.00;3.00;;;;;26.02;27.53;100865.72;5096671;27;47297;-74
2022/03/12 02:26:43;;;;;;;;;4.00;4.00;;;;;26.06;27.21;100867.38;5078258;27;45312;-74
2022/03/12 02:29:18;;;;;;;;;2.00;2.00;;;;;26.01;27.18;100862.09;5096804;27;45548;-74
2022/03/12 02:31:48;;;;;;;;;3.00;3.00;;;;;25.95;27.46;100875.94;5096285;27;45434;-74
2022/03/12 02:34:13;;;;;;;;;2.00;2.00;;;;;25.96;27.43;100852.34;5096814;27;45413;-74
2022/03/12 02:36:40;;;;;;;;;4.00;3.00;;;;;26.22;27.28;100864.84;5078042;27;45436;-74
2022/03/12 02:39:07;;;;;;;;;2.33;2.00;;;;;26.17;26.94;100858.72;5078128;27;45358;-74
2022/03/12 02:41:33;;;;;;;;;5.00;5.00;;;;;26.19;27.39;100857.69;5096616;27;45307;-74
2022/03/12 02:43:59;;;;;;;;;4.00;3.67;;;;;25.98;26.90;100848.63;5077919;27;47135;-74
2022/03/12 02:46:32;;;;;;;;;3.33;2.00;;;;;26.02;27.05;100850.28;5096136;27;45416;-74
2022/03/12 02:48:58;;;;;;;;;3.00;3.00;;;;;26.04;27.30;100862.94;5096437;27;45542;-74
2022/03/12 02:51:25;;;;;;;;;4.00;3.00;;;;;26.00;27.23;100854.84;5096342;27;45534;-74
2022/03/12 02:53:54;;;;;;;;;1.67;1.67;;;;;26.10;27.09;100857.22;5096102;27;46359;-74
2022/03/12 02:56:19;;;;;;;;;5.00;2.67;;;;;26.01;26.98;100856.66;5096454;27;45335;-74
2022/03/12 02:58:45;;;;;;;;;2.00;2.00;;;;;25.93;26.70;100856.09;5095883;27;45208;-74
2022/03/12 03:01:14;;;;;;;;;3.00;1.67;;;;;25.88;27.23;100866.28;5095983;27;45307;-74
2022/03/12 03:03:44;;;;;;;;;4.33;3.33;;;;;26.03;27.10;100878.34;5057331;28;47051;-74
2022/03/12 03:06:10;;;;;;;;;2.00;2.00;;;;;26.18;26.92;100868.66;5075711;28;45270;-74
2022/03/12 03:08:39;;;;;;;;;3.00;2.00;;;;;26.19;26.99;100873.13;5075799;28;45406;-74
2022/03/12 03:11:11;;;;;;;;;2.00;2.00;;;;;26.13;27.25;100884.25;5074402;28;45541;-74
2022/03/12 03:13:44;;;;;;;;;1.33;1.33;;;;;26.00;26.90;100873.88;5074982;28;46378;-74
2022/03/12 03:16:11;;;;;;;;;3.67;2.33;;;;;25.94;26.90;100876.00;5074245;28;45559;-74
2022/03/12 03:18:39;;;;;;;;;2.00;2.00;;;;;25.78;27.13;100867.63;5075366;28;45259;-74
2022/03/12 03:21:08;;;;;;;;;2.00;1.00;;;;;25.90;27.13;100872.53;5075429;28;45399;-74
2022/03/12 03:23:33;;;;;;;;;2.33;2.00;;;;;25.93;26.77;100877.84;5075170;28;46337;-74
2022/03/12 03:26:00;;;;;;;;;3.00;2.00;;;;;25.90;27.25;100872.53;5075106;28;45399;-74
2022/03/12 03:28:26;;;;;;;;;2.00;2.00;;;;;25.72;27.33;100873.31;5075394;28;45451;-74
2022/03/12 03:30:51;;;;;;;;;3.00;2.00;;;;;25.42;27.53;100860.09;5073893;28;45302;-74
2022/03/12 03:33:20;;;;;;;;;2.00;2.00;;;;;25.64;27.32;100885.41;5075317;28;46218;-74
2022/03/12 03:35:46;;;;;;;;;4.00;3.00;;;;;25.57;27.12;100870.31;5075211;28;45355;-74
2022/03/12 03:38:13;;;;;;;;;2.33;2.33;;;;;25.90;26.80;100885.25;5074110;28;45524;-74
2022/03/12 03:40:40;;;;;;;;;2.00;2.00;;;;;25.63;27.47;100869.16;5073733;28;45183;-74
2022/03/12 03:43:13;;;;;;;;;2.00;2.00;;;;;25.67;26.92;100889.84;5074682;28;46586;-74
2022/03/12 03:45:39;;;;;;;;;1.33;1.33;;;;;25.72;26.90;100886.91;5075082;28;45419;-74
2022/03/12 03:48:11;;;;;;;;;3.00;2.00;;;;;25.75;27.27;100892.22;5075124;28;45496;-74
2022/03/12 03:50:36;;;;;;;;;1.33;1.33;;;;;25.60;27.58;100883.75;5075233;28;45534;-74
2022/03/12 03:53:03;;;;;;;;;2.33;2.33;;;;;25.51;27.54;100878.69;5075006;28;45495;-74
2022/03/12 03:55:30;;;;;;;;;2.00;2.00;;;;;25.56;27.09;100879.41;5075064;28;45257;-74
2022/03/12 03:57:57;;;;;;;;;2.33;2.33;;;;;25.63;27.01;100875.47;5074544;28;45511;-73
2022/03/12 04:00:23;;;;;;;;;2.33;2.00;;;;;25.63;26.99;100880.91;5057146;28;45533;-74
2022/03/12 04:02:55;;;;;;;;;2.00;2.00;;;;;25.50;27.29;100879.66;5088306;27;45472;-74
2022/03/12 04:05:22;;;;;;;;;2.00;2.00;;;;;25.50;27.07;100887.81;5095363;27;45431;-74
2022/03/12 04:07:47;;;;;;;;;2.00;2.00;;;;;25.24;27.27;100873.41;5095129;27;45456;-74
2022/03/12 04:10:12;;;;;;;;;2.00;1.00;;;;;25.19;27.42;100880.88;5095446;27;45342;-74
2022/03/12 04:12:38;;;;;;;;;2.00;2.00;;;;;25.32;27.48;100879.47;5094772;27;46585;-74
2022/03/12 04:15:03;;;;;;;;;2.00;2.00;;;;;25.40;27.49;100886.41;5094995;27;45426;-74
2022/03/12 04:17:29;;;;;;;;;3.00;3.00;;;;;25.37;27.19;100876.56;5095173;27;45409;-74
2022/03/12 04:19:54;;;;;;;;;3.67;2.33;;;;;25.56;27.00;100893.00;5094845;27;45504;-74
2022/03/12 04:22:20;;;;;;;;;2.33;2.33;;;;;25.39;27.31;100871.09;5095128;27;45457;-74
2022/03/12 04:24:45;;;;;;;;;3.33;2.00;;;;;25.47;26.86;100887.91;5094898;27;45432;-73
2022/03/12 04:27:11;;;;;;;;;1.67;1.00;;;;;25.43;27.25;100878.13;5067298;27;45407;-73
2022/03/12 04:29:37;;;;;;;;;4.00;4.00;;;;;25.66;26.87;100894.38;5077994;28;45351;-75
2022/03/12 04:32:07;;;;;;;;;3.00;2.00;;;;;25.55;26.78;100895.78;5077673;27;45483;-74
2022/03/12 04:34:34;;;;;;;;;1.33;1.33;;;;;25.36;27.15;100887.47;5096572;27;45508;-75
2022/03/12 04:36:59;;;;;;;;;2.00;2.00;;;;;25.39;27.12;100887.38;5082692;27;45962;-75
2022/03/12 04:39:25;;;;;;;;;2.00;2.00;;;;;25.50;27.08;100890.53;5082626;27;45480;-75
2022/03/12 04:41:50;;;;;;;;;3.00;2.33;;;;;25.45;26.73;100879.84;5077276;28;45519;-74
2022/03/12 04:44:15;;;;;;;;;3.00;3.00;;;;;25.45;26.67;100881.69;5077779;28;45371;-75
2022/03/12 04:46:41;;;;;;;;;4.00;2.33;;;;;25.35;27.13;100894.75;5097090;27;45576;-75
2022/03/12 04:49:07;;;;;;;;;2.00;2.00;;;;;25.35;27.30;100892.03;5098040;27;45580;-76
2022/03/12 04:51:32;;;;;;;;;2.33;2.33;;;;;25.40;27.07;100906.31;5096992;27;46109;-75
2022/03/12 04:53:59;;;;;;;;;2.33;2.33;;;;;25.28;26.93;100895.91;5095873;27;45422;-75
2022/03/12 04:56:25;;;;;;;;;5.00;3.33;;;;;25.19;27.50;100902.59;5078374;27;45406;-75
2022/03/12 04:58:53;;;;;;;;;3.00;2.33;;;;;25.20;26.99;100903.47;5096500;27;45347;-75
2022/03/12 05:01:18;;;;;;;;;5.67;3.00;;;;;25.07;27.69;100894.94;5096366;27;46189;-75
2022/03/12 05:03:45;;;;;;;;;3.00;3.00;;;;;25.19;27.46;100918.91;5096447;27;45378;-75
2022/03/12 05:06:13;;;;;;;;;7.00;5.33;;;;;25.32;27.04;100922.03;5094244;27;45379;-75
2022/03/12 05:08:39;;;;;;;;;4.00;3.00;;;;;25.32;26.82;100911.19;5096701;27;45665;-75
2022/03/12 05:11:05;;;;;;;;;5.00;3.67;;;;;25.38;27.36;100923.63;5096045;27;45362;-74
2022/03/12 05:13:31;;;;;;;;;5.33;3.00;;;;;25.33;26.78;100923.81;5094161;27;45365;-75
2022/03/12 05:16:00;;;;;;;;;4.00;4.00;;;;;25.00;27.22;100886.16;5107019;27;45238;-75
2022/03/12 05:18:28;;;;;;;;;4.00;4.00;;;;;25.07;27.15;100922.97;5090366;27;45511;-75
2022/03/12 05:20:55;;;;;;;;;6.33;4.00;;;;;25.00;27.18;100922.31;5102066;27;45544;-75
2022/03/12 05:23:20;;;;;;;;;4.33;3.00;;;;;25.03;27.64;100923.16;5077148;27;45893;-76
2022/03/12 05:25:47;;;;;;;;;3.00;3.00;;;;;24.95;27.27;100910.75;5081126;27;45416;-77
2022/03/12 05:28:16;;;;;;;;;7.00;4.00;;;;;25.12;27.06;100934.53;5076827;27;45726;-76
2022/03/12 05:30:46;;;;;;;;;3.00;3.00;;;;;25.03;27.36;100921.31;5083088;27;46832;-76
2022/03/12 05:33:12;;;;;;;;;3.00;2.00;;;;;24.80;27.47;100914.94;5078893;27;45805;-77
2022/03/12 05:35:40;;;;;;;;;4.33;3.00;;;;;24.72;28.00;100925.19;5086680;27;45474;-76
2022/03/12 05:38:06;;;;;;;;;3.00;3.00;;;;;24.71;28.04;100915.31;5086313;27;46026;-77
2022/03/12 05:40:37;;;;;;;;;3.67;2.67;;;;;25.18;27.35;100927.97;5062101;28;47524;-76
2022/03/12 05:43:02;;;;;;;;;3.33;2.33;;;;;24.94;26.92;100905.41;5083896;27;45850;-76
2022/03/12 05:45:28;;;;;;;;;2.67;2.67;;;;;25.30;27.37;100937.47;5087663;27;45376;-76
2022/03/12 05:47:53;;;;;;;;;4.00;4.00;;;;;25.18;27.02;100936.13;5070374;27;45799;-76
2022/03/12 05:50:19;;;;;;;;;5.67;4.00;;;;;25.15;27.01;100898.25;5073225;27;46124;-77
2022/03/12 05:52:49;;;;;;;;;3.00;3.00;;;;;25.06;26.48;100909.44;5088248;27;45484;-76
2022/03/12 05:55:20;;;;;;;;;4.00;2.00;;;;;25.28;26.71;100921.22;5084718;27;45649;-76
2022/03/12 05:57:46;;;;;;;;;2.33;2.00;;;;;25.24;26.64;100930.44;5085999;27;45822;-84
2022/03/12 06:00:13;;;;;;;;;2.67;2.67;;;;;25.05;27.34;100945.69;5082473;27;47573;-83
2022/03/12 06:02:49;;;;;;;;;2.00;2.00;;;;;25.23;27.27;100972.13;5084674;27;45746;-82
2022/03/12 06:05:17;;;;;;;;;2.00;2.00;;;;;25.07;27.14;100917.53;5099262;27;45413;-82
2022/03/12 06:07:46;;;;;;;;;3.00;1.67;;;;;25.72;26.21;100976.59;5080661;27;45962;-82
2022/03/12 06:10:16;;;;;;;;;3.00;3.00;;;;;25.88;26.01;100976.81;5089426;27;48099;-83
2022/03/12 06:12:43;;;;;;;;;3.00;2.00;;;;;25.88;25.97;100983.16;5081680;27;45547;-82
2022/03/12 06:15:14;;;;;;;;;3.00;3.00;;;;;25.33;26.59;100921.97;5083277;27;45781;-82
2022/03/12 06:17:40;;;;;;;;;3.00;3.00;;;;;25.66;26.27;100978.59;5081024;27;45635;-83
2022/03/12 06:20:08;;;;;;;;;3.00;2.00;;;;;25.40;26.47;100957.03;5077432;27;46957;-83
2022/03/12 06:22:34;;;;;;;;;2.00;1.67;;;;;25.20;26.50;100939.66;5075646;27;45522;-83
2022/03/12 06:24:59;;;;;;;;;3.00;2.00;;;;;25.46;26.69;100965.81;5086925;27;45458;-84
2022/03/12 06:27:24;;;;;;;;;3.00;3.00;;;;;24.85;26.73;100865.03;5076325;27;45521;-85
2022/03/12 06:29:50;;;;;;;;;2.00;2.00;;;;;24.97;26.54;100899.84;5080062;27;45712;-83
2022/03/12 06:32:15;;;;;;;;;3.33;3.00;;;;;25.09;27.09;100931.03;5091984;27;45911;-85
2022/03/12 06:34:43;;;;;;;;;1.00;1.00;;;;;25.35;26.93;100946.34;5084284;27;45459;-84
2022/03/12 06:37:08;;;;;;;;;4.00;4.00;;;;;24.91;26.60;100879.25;5076633;27;45493;-83
2022/03/12 06:39:34;;;;;;;;;4.00;4.00;;;;;25.74;26.19;100999.13;5089642;27;46340;-83
2022/03/12 06:42:02;;;;;;;;;5.00;4.00;;;;;25.69;26.04;101002.03;5096999;27;45424;-83
2022/03/12 06:44:32;;;;;;;;;3.67;3.67;;;;;25.31;26.77;100940.09;5079303;27;45190;-83
2022/03/12 06:47:01;;;;;;;;;5.00;3.67;;;;;25.50;26.10;100961.16;5076545;28;45438;-83
2022/03/12 06:49:28;;;;;;;;;3.00;3.00;;;;;25.79;26.64;101018.88;5075283;27;45603;-83
2022/03/12 06:51:55;;;;;;;;;7.00;3.00;;;;;25.92;26.13;101033.75;5075999;28;45381;-83
2022/03/12 06:54:21;;;;;;;;;5.00;4.00;;;;;25.72;26.49;101030.94;5088994;27;45348;-83
2022/03/12 06:56:47;;;;;;;;;3.00;3.00;;;;;25.31;26.36;100983.56;5057947;28;45902;-83
2022/03/12 06:59:13;;;;;;;;;5.33;4.00;;;;;25.63;26.16;101021.31;5086112;27;46332;-83
2022/03/12 07:01:38;;;;;;;;;5.00;3.00;;;;;25.59;26.81;101030.53;5075846;27;45375;-83
2022/03/12 07:04:03;;;;;;;;;5.00;4.00;;;;;25.13;27.07;100996.03;5091499;27;45379;-83
2022/03/12 07:06:29;;;;;;;;;2.00;2.00;;;;;25.25;26.57;101010.97;5086511;27;45555;-83
2022/03/12 07:08:54;;;;;;;;;5.67;4.00;;;;;25.16;27.14;101000.44;5057613;28;47493;-83
2022/03/12 07:11:20;;;;;;;;;4.00;2.00;;;;;25.39;26.76;101012.31;5057950;27;45317;-83
2022/03/12 07:13:46;;;;;;;;;2.67;2.33;;;;;25.27;26.82;101011.78;5074405;28;45428;-83
2022/03/12 07:16:11;;;;;;;;;3.33;3.00;;;;;25.07;27.11;100988.13;5094717;27;45648;-83
2022/03/12 07:18:38;;;;;;;;;8.33;4.00;;;;;24.80;27.24;101004.47;5077700;27;47290;-83
2022/03/12 07:21:04;;;;;;;;;3.00;3.00;;;;;25.24;26.98;101051.75;5077674;27;45339;-84
2022/03/12 07:23:30;;;;;;;;;4.00;3.00;;;;;24.85;27.47;100992.56;5077737;27;45477;-84
2022/03/12 07:25:56;;;;;;;;;3.00;3.00;;;;;24.64;27.28;101008.69;5096534;27;45442;-84
2022/03/12 07:28:21;;;;;;;;;8.00;5.67;;;;;25.16;27.33;101028.50;5096248;27;46150;-84
2022/03/12 07:30:46;;;;;;;;;5.00;3.67;;;;;25.17;27.42;101019.41;5096003;27;45294;-84
2022/03/12 07:33:12;;;;;;;;;6.00;5.67;;;;;25.06;27.27;101002.63;5096275;27;45298;-84
2022/03/12 07:35:37;;;;;;;;;3.00;3.00;;;;;25.25;27.11;101051.69;5091534;27;45294;-83
2022/03/12 07:38:04;;;;;;;;;7.00;4.00;;;;;25.15;27.21;101031.28;5075718;28;45342;-83
2022/03/12 07:40:30;;;;;;;;;2.00;2.00;;;;;24.53;27.61;100973.78;5065263;28;45360;-83
2022/03/12 07:42:55;;;;;;;;;3.00;3.00;;;;;25.04;27.52;101038.94;5091028;27;45305;-84
2022/03/12 07:45:21;;;;;;;;;2.00;2.00;;;;;24.89;27.81;101015.94;5077089;27;45514;-84
2022/03/12 07:47:52;;;;;;;;;6.00;3.33;;;;;25.06;27.52;101039.75;5094951;27;45231;-84
2022/03/12 07:50:18;;;;;;;;;4.00;2.67;;;;;24.39;28.31;100997.81;5095845;27;45469;-84
2022/03/12 07:52:44;;;;;;;;;3.00;3.00;;;;;24.74;28.00;100987.53;5077018;27;45903;-84
2022/03/12 07:55:12;;;;;;;;;3.00;3.00;;;;;24.33;28.16;100958.19;5095599;27;45311;-84
2022/03/12 07:57:39;;;;;;;;;2.00;2.00;;;;;24.82;28.09;101026.13;5094967;27;46344;-84
2022/03/12 08:00:06;;;;;;;;;4.00;3.00;;;;;25.41;27.30;101075.59;5076942;27;45660;-85
2022/03/12 08:02:32;;;;;;;;;3.00;3.00;;;;;25.31;27.40;101054.16;5098394;27;45310;-84
2022/03/12 08:04:58;;;;;;;;;1.00;1.00;;;;;25.17;27.49;101003.13;5094130;27;45785;-84
2022/03/12 08:07:24;;;;;;;;;3.33;2.33;;;;;25.72;26.95;101090.72;5098570;27;45423;-83
2022/03/12 08:09:55;;;;;;;;;4.00;4.00;;;;;25.61;26.99;101056.72;5078788;27;45248;-84
2022/03/12 08:12:30;;;;;;;;;4.00;3.00;;;;;25.28;27.05;101032.56;5091560;27;45432;-83
2022/03/12 08:14:56;;;;;;;;;3.00;3.00;;;;;25.71;26.62;101050.91;5099522;27;45470;-81
2022/03/12 08:17:23;;;;;;;;;3.00;3.00;;;;;25.81;26.78;101052.31;5079690;27;48772;-87
2022/03/12 08:19:49;;;;;;;;;2.00;2.00;;;;;25.86;26.55;101101.94;5099212;27;45497;-87
2022/03/12 08:22:15;;;;;;;;;3.00;3.00;;;;;25.53;27.01;101053.41;5099940;27;45351;-86
2022/03/12 08:24:40;;;;;;;;;3.00;3.00;;;;;25.82;26.66;101059.50;5081150;27;45466;-86
2022/03/12 08:27:07;;;;;;;;;4.00;3.00;;;;;26.02;26.59;101085.94;5092003;27;46951;-87
2022/03/12 08:29:33;;;;;;;;;4.00;2.67;;;;;26.07;27.07;101113.81;5105792;27;45673;-87
2022/03/12 08:31:59;;;;;;;;;3.33;3.00;;;;;25.95;26.59;101093.41;5094728;27;45463;-86
2022/03/12 08:34:24;;;;;;;;;3.00;3.00;;;;;26.17;26.81;101125.19;5098773;27;45318;-87
2022/03/12 08:36:50;;;;;;;;;6.33;4.00;;;;;26.32;26.47;101130.03;5079598;27;47244;-87
2022/03/12 08:39:16;;;;;;;;;3.33;3.33;;;;;26.03;26.54;101098.56;5092833;27;45535;-87
2022/03/12 08:41:43;;;;;;;;;7.00;3.00;;;;;26.07;27.05;101131.97;5080045;27;45468;-86
2022/03/12 08:44:09;;;;;;;;;4.00;4.00;;;;;26.08;26.95;101117.44;5091080;27;45389;-86
2022/03/12 08:46:35;;;;;;;;;5.00;4.00;;;;;26.19;26.65;101086.13;5080175;27;48078;-87
2022/03/12 08:49:02;;;;;;;;;7.00;5.00;;;;;26.43;25.81;101067.00;5098641;27;45960;-88
2022/03/12 08:51:28;;;;;;;;;5.00;5.00;;;;;26.20;26.39;101076.13;5102550;27;45445;-88
2022/03/12 08:53:54;;;;;;;;;4.00;4.00;;;;;26.26;26.23;101081.31;5083072;27;45196;-87
2022/03/12 08:56:19;;;;;;;;;3.67;3.67;;;;;26.54;26.35;101118.25;5081394;27;47417;-87
2022/03/12 08:58:46;;;;;;;;;5.00;4.00;;;;;26.20;26.52;101065.25;5082742;27;45571;-87
2022/03/12 09:01:12;;;;;;;;;5.00;4.00;;;;;26.79;26.37;101112.69;5080737;27;45547;-87
2022/03/12 09:03:38;;;;;;;;;7.00;5.00;;;;;26.86;26.22;101108.75;5089410;27;45617;-86
2022/03/12 09:06:05;;;;;;;;;4.33;4.33;;;;;26.64;26.19;101057.03;5060201;28;47294;-87
2022/03/12 09:08:31;;;;;;;;;7.00;5.00;;;;;26.85;25.87;101081.59;5080185;27;45260;-87
2022/03/12 09:10:59;;;;;;;;;5.00;4.00;;;;;26.81;25.81;101079.97;5097956;27;45392;-87
2022/03/12 09:13:25;;;;;;;;;4.67;4.67;;;;;26.22;26.60;101029.84;5097000;27;45583;-87
2022/03/12 09:15:51;;;;;;;;;8.00;4.00;;;;;27.07;26.40;101132.38;5096916;27;47298;-84
2022/03/12 09:18:18;;;;;;;;;7.00;7.00;;;;;26.87;26.08;101074.22;5077848;27;45522;-82
2022/03/12 09:20:46;;;;;;;;;4.00;4.00;;;;;26.53;25.92;101022.13;5071998;27;45890;-84
2022/03/12 09:23:12;;;;;;;;;5.67;5.67;;;;;26.67;26.40;101069.63;5071358;27;45513;-86
2022/03/12 09:25:38;;;;;;;;;6.33;5.33;;;;;26.42;26.35;101037.16;5075823;27;47155;-85
2022/03/12 09:28:03;;;;;;;;;5.67;5.67;;;;;26.51;26.80;101044.91;5063909;27;45995;-86
2022/03/12 09:30:29;;;;;;;;;4.00;3.00;;;;;26.81;26.58;101131.69;5085412;27;45805;-88
2022/03/12 09:32:54;;;;;;;;;7.00;5.00;;;;;25.50;26.93;100899.56;5077437;27;45605;-81
2022/03/12 09:35:20;;;;;;;;;6.33;4.67;;;;;26.27;27.17;101046.84;5084248;27;45875;-82
2022/03/12 09:37:47;;;;;;;;;4.67;4.33;;;;;26.58;27.31;101084.53;5079674;27;45791;-82
2022/03/12 09:40:15;;;;;;;;;5.00;5.00;;;;;26.63;26.95;101089.78;5085021;27;45821;-78
2022/03/12 09:42:41;;;;;;;;;6.33;5.00;;;;;26.38;27.23;101043.69;5086102;27;45496;-81
2022/03/12 09:45:07;;;;;;;;;4.00;4.00;;;;;26.48;26.72;101015.13;5078488;27;47064;-80
2022/03/12 09:47:33;;;;;;;;;8.00;5.67;;;;;26.53;26.86;100994.91;5070458;28;45549;-82
2022/03/12 09:49:58;;;;;;;;;8.00;4.33;;;;;27.23;26.22;101062.66;5084817;27;45878;-81
2022/03/12 09:52:23;;;;;;;;;9.00;5.33;;;;;27.43;26.35;101071.78;5081122;27;45616;-81
2022/03/12 09:54:49;;;;;;;;;7.00;4.00;;;;;27.55;26.21;101055.72;5085215;27;46134;-82
2022/03/12 09:57:15;;;;;;;;;5.00;5.00;;;;;27.80;25.96;101061.84;5077590;27;45745;-83
2022/03/12 09:59:40;;;;;;;;;6.33;5.00;;;;;27.99;26.36;101119.09;5081046;27;45495;-83
2022/03/12 10:02:06;;;;;;;;;4.67;4.67;;;;;27.86;25.95;101124.25;5080879;27;45469;-79
2022/03/12 10:04:31;;;;;;;;;7.33;6.00;;;;;27.72;26.26;101098.53;5082706;27;46719;-80
2022/03/12 10:06:58;;;;;;;;;6.00;4.67;;;;;28.13;26.08;101110.25;5084624;27;45536;-81
2022/03/12 10:09:23;;;;;;;;;5.67;5.67;;;;;28.11;26.17;101109.47;5076341;27;45477;-80
2022/03/12 10:11:52;;;;;;;;;8.67;5.67;;;;;27.82;26.21;101115.34;5078127;27;45485;-78
2022/03/12 10:14:18;;;;;;;;;9.67;9.67;;;;;27.96;26.11;101111.03;5083039;27;46403;-78
2022/03/12 10:16:44;;;;;;;;;10.00;8.00;;;;;27.48;26.18;101028.81;5066536;27;45730;-84
2022/03/12 10:19:09;;;;;;;;;6.00;6.00;;;;;27.54;26.36;101061.25;5072629;27;45446;-80
2022/03/12 10:21:42;;;;;;;;;4.00;4.00;;;;;27.62;26.38;101126.28;5068930;27;45553;-81
2022/03/12 10:24:08;;;;;;;;;5.33;5.33;;;;;27.49;26.57;101066.91;5080040;27;45472;-79
2022/03/12 10:26:33;;;;;;;;;8.67;8.67;;;;;27.63;26.19;101070.81;5084199;27;45445;-78
2022/03/12 10:28:59;;;;;;;;;5.00;5.00;;;;;27.73;26.37;101104.84;5056227;27;45704;-77
2022/03/12 10:31:24;;;;;;;;;4.33;4.33;;;;;27.96;26.21;101119.22;5078074;27;45485;-79
2022/03/12 10:33:50;;;;;;;;;4.67;3.67;;;;;27.79;26.01;101055.50;5080056;27;45998;-80
2022/03/12 10:36:17;;;;;;;;;7.00;4.00;;;;;28.05;26.17;101103.34;5077272;27;45935;-80
2022/03/12 10:38:48;;;;;;;;;5.33;4.00;;;;;28.08;25.95;101083.22;5083859;27;45389;-78
2022/03/12 10:41:14;;;;;;;;;5.00;3.67;;;;;28.09;25.95;101117.72;5069476;27;45403;-81
2022/03/12 10:43:54;;;;;;;;;6.00;4.67;;;;;27.97;25.96;101118.28;5071791;27;47700;-79
2022/03/12 10:46:25;;;;;;;;;4.33;3.00;;;;;27.80;26.02;101070.88;5088089;27;45753;-79
2022/03/12 10:48:59;;;;;;;;;4.33;4.00;;;;;27.44;26.47;101070.78;5084637;27;45442;-81
2022/03/12 10:51:30;;;;;;;;;3.00;3.00;;;;;27.45;27.11;101102.53;5078230;27;45820;-82
2022/03/12 10:54:25;;;;;;;;;4.00;4.00;;;;;27.82;26.58;101092.63;5082985;27;46653;-81
2022/03/12 10:56:54;;;;;;;;;4.33;4.33;;;;;28.03;26.17;101088.00;5063674;28;45473;-81
2022/03/12 10:59:29;;;;;;;;;4.00;4.00;;;;;28.12;26.33;101073.06;5087603;27;45461;-81
2022/03/12 11:01:58;;;;;;;;;5.00;5.00;;;;;28.31;25.99;101100.28;5083196;27;45576;-81
2022/03/12 11:04:26;;;;;;;;;4.00;3.67;;;;;28.32;25.76;101102.94;5088530;27;46387;-80
2022/03/12 11:06:59;;;;;;;;;3.00;3.00;;;;;28.27;25.87;101096.84;5072769;27;45736;-81
2022/03/12 11:09:34;;;;;;;;;6.67;5.00;;;;;27.99;26.16;101095.47;5081685;27;45628;-80
2022/03/12 11:12:00;;;;;;;;;4.00;4.00;;;;;27.56;26.41;101081.13;5084384;27;45867;-79
2022/03/12 11:14:30;;;;;;;;;5.33;4.00;;;;;27.20;26.92;101076.38;5083311;27;45888;-82
2022/03/12 11:16:56;;;;;;;;;5.00;4.33;;;;;27.41;26.76;101087.28;5077839;27;45932;-83
2022/03/12 11:19:37;;;;;;;;;5.33;3.00;;;;;27.52;26.58;101076.78;5083446;27;45536;-82
2022/03/12 11:22:09;;;;;;;;;6.00;5.00;;;;;27.64;26.60;101073.47;5071952;27;45487;-82
2022/03/12 11:24:49;;;;;;;;;6.00;4.00;;;;;27.34;26.39;101046.69;5080219;27;46256;-82